Time;durP1;ratioP1;P1;durP2;ratioP2;P2;SDS_P1;SDS_P2;PMS_P1;PMS_P2;Temp;Humidity;BMP_temperature;BMP_pressure;BME280_temperature;BME280_humidity;BME280_pressure;Samples;Min_cycle;Max_cycle;Signal;HPM_P1;HPM_P2
2022/01/26 06:00:47;;;;;;;50.27;23.03;;;;;;;;;;2086676;22;20644;-81
2022/01/26 06:03:15;;;;;;;49.67;22.47;;;;;;;;;;5055906;28;20205;-85
2022/01/26 06:05:42;;;;;;;51.20;23.03;;;;;;;;;;5055919;28;20208;-87
2022/01/26 06:08:09;;;;;;;48.07;22.60;;;;;;;;;;5059781;28;20201;-82
2022/01/26 06:10:37;;;;;;;45.47;22.87;;;;;;;;;;5056307;28;20232;-85
2022/01/26 06:13:10;;;;;;;40.83;21.77;;;;;;;;;;5057523;28;20284;-85
2022/01/26 06:15:37;;;;;;;44.23;21.37;;;;;;;;;;5064857;28;20243;-89
2022/01/26 06:18:06;;;;;;;46.40;23.23;;;;;;;;;;5076364;28;20205;-89
2022/01/26 06:20:34;;;;;;;41.33;21.43;;;;;;;;;;5071051;28;20213;-84
2022/01/26 06:23:01;;;;;;;47.90;22.10;;;;;;;;;;5065788;28;20209;-85
2022/01/26 06:25:28;;;;;;;42.73;20.83;;;;;;;;;;5074021;28;20248;-83
2022/01/26 06:27:59;;;;;;;41.30;21.47;;;;;;;;;;5070661;28;20206;-83
2022/01/26 06:30:27;;;;;;;45.53;21.77;;;;;;;;;;5063479;28;20245;-82
2022/01/26 06:32:55;;;;;;;46.67;22.70;;;;;;;;;;5062696;28;20201;-84
2022/01/26 06:35:27;;;;;;;45.40;21.83;;;;;;;;;;5053575;28;20201;-81
2022/01/26 06:37:54;;;;;;;49.47;24.17;;;;;;;;;;5057540;28;20220;-84
2022/01/26 06:40:23;;;;;;;51.40;23.13;;;;;;;;;;5055842;28;20290;-84
2022/01/26 06:42:54;;;;;;;47.77;23.27;;;;;;;;;;5056449;28;20224;-84
2022/01/26 06:45:24;;;;;;;49.30;23.57;;;;;;;;;;5053922;28;20201;-81
2022/01/26 06:50:34;;;;;;;49.47;23.43;;;;;;;;;;5049294;28;20232;-85
2022/01/26 06:53:01;;;;;;;46.23;22.57;;;;;;;;;;5051914;28;20265;-85
2022/01/26 06:55:28;;;;;;;48.70;23.53;;;;;;;;;;5055397;28;20291;-82
2022/01/26 06:57:56;;;;;;;49.10;22.40;;;;;;;;;;5068735;28;20225;-84
2022/01/26 07:00:23;;;;;;;46.87;23.57;;;;;;;;;;5055123;28;20217;-84
2022/01/26 07:02:54;;;;;;;45.23;21.80;;;;;;;;;;5053948;28;20216;-83
2022/01/26 07:05:21;;;;;;;46.63;22.60;;;;;;;;;;5059159;28;20196;-85
2022/01/26 07:07:51;;;;;;;42.07;21.83;;;;;;;;;;5053996;28;20206;-85
2022/01/26 07:10:18;;;;;;;43.83;21.90;;;;;;;;;;5053092;28;20224;-85
2022/01/26 07:12:46;;;;;;;46.60;23.03;;;;;;;;;;5057433;28;20213;-87
2022/01/26 07:21:23;;;;;;;40.03;20.13;;;;;;;;;;4990519;28;20228;-86
2022/01/26 07:23:51;;;;;;;46.37;21.57;;;;;;;;;;5044351;28;20295;-86
2022/01/26 07:26:26;;;;;;;39.40;21.17;;;;;;;;;;5054827;28;20231;-85
2022/01/26 07:28:53;;;;;;;40.40;21.43;;;;;;;;;;5062043;28;20227;-86
2022/01/26 07:31:21;;;;;;;38.83;20.80;;;;;;;;;;5051157;28;20217;-84
2022/01/26 07:33:53;;;;;;;40.30;22.27;;;;;;;;;;5059284;28;20287;-86
2022/01/26 07:36:21;;;;;;;40.10;21.27;;;;;;;;;;5051608;28;20224;-86
2022/01/26 07:38:50;;;;;;;40.57;22.23;;;;;;;;;;5044927;28;20225;-87
2022/01/26 07:41:19;;;;;;;37.63;20.97;;;;;;;;;;5059270;28;20225;-86
2022/01/26 07:43:49;;;;;;;38.30;20.67;;;;;;;;;;5059054;28;20233;-84
2022/01/26 07:46:17;;;;;;;36.07;19.27;;;;;;;;;;5048754;28;20201;-86
2022/01/26 07:48:46;;;;;;;37.73;19.73;;;;;;;;;;5059848;28;20213;-86
2022/01/26 07:51:14;;;;;;;40.13;20.50;;;;;;;;;;5055679;28;20217;-85
2022/01/26 07:53:44;;;;;;;37.37;20.37;;;;;;;;;;5052388;28;20206;-86
2022/01/26 07:56:15;;;;;;;39.27;20.77;;;;;;;;;;5060463;28;20264;-84
2022/01/26 07:58:47;;;;;;;37.67;20.13;;;;;;;;;;5057273;28;20216;-86
2022/01/26 08:01:19;;;;;;;36.40;19.57;;;;;;;;;;5057851;28;20237;-86
2022/01/26 08:03:53;;;;;;;36.80;19.87;;;;;;;;;;5056414;28;20683;-84
2022/01/26 08:06:21;;;;;;;37.87;20.00;;;;;;;;;;5054957;28;20210;-82
2022/01/26 08:08:48;;;;;;;37.17;19.97;;;;;;;;;;5055536;28;20201;-85
2022/01/26 08:11:15;;;;;;;33.63;18.93;;;;;;;;;;5055551;28;20209;-87
2022/01/26 08:13:47;;;;;;;35.93;19.77;;;;;;;;;;5057361;28;20194;-86
2022/01/26 08:16:15;;;;;;;33.53;19.63;;;;;;;;;;5069466;28;20201;-86
2022/01/26 08:18:42;;;;;;;34.93;19.93;;;;;;;;;;5068977;28;20217;-85
2022/01/26 08:21:10;;;;;;;33.63;19.33;;;;;;;;;;5060436;28;20217;-84
2022/01/26 08:23:37;;;;;;;30.57;17.83;;;;;;;;;;5057433;28;20297;-85
2022/01/26 08:26:05;;;;;;;36.33;19.13;;;;;;;;;;5059787;28;20209;-83
2022/01/26 08:28:36;;;;;;;28.63;17.33;;;;;;;;;;5056821;28;20263;-84
2022/01/26 08:31:05;;;;;;;33.27;18.90;;;;;;;;;;5047775;28;20290;-85
2022/01/26 08:33:33;;;;;;;34.67;18.53;;;;;;;;;;5057289;28;20213;-86
2022/01/26 08:36:03;;;;;;;30.53;18.57;;;;;;;;;;5050998;28;20197;-81
2022/01/26 08:38:31;;;;;;;34.33;19.17;;;;;;;;;;5054955;28;20245;-81
2022/01/26 08:40:58;;;;;;;32.27;19.07;;;;;;;;;;5056673;28;20228;-80
2022/01/26 08:43:33;;;;;;;31.17;17.37;;;;;;;;;;5056381;28;20209;-81
2022/01/26 08:46:01;;;;;;;32.13;18.40;;;;;;;;;;5058473;28;20205;-81
2022/01/26 08:48:30;;;;;;;32.00;18.87;;;;;;;;;;5057552;28;20205;-79
2022/01/26 08:50:57;;;;;;;33.77;18.57;;;;;;;;;;5058422;28;20221;-84
2022/01/26 08:53:24;;;;;;;32.70;18.53;;;;;;;;;;5058151;28;20208;-83
2022/01/26 08:55:52;;;;;;;31.63;18.03;;;;;;;;;;5056368;28;20269;-84
2022/01/26 08:58:19;;;;;;;36.53;19.97;;;;;;;;;;5052435;28;20205;-85
2022/01/26 09:00:47;;;;;;;30.97;18.33;;;;;;;;;;5058928;28;20225;-83
2022/01/26 09:03:14;;;;;;;35.50;19.67;;;;;;;;;;5062214;28;20331;-85
2022/01/26 09:05:43;;;;;;;34.70;19.47;;;;;;;;;;5058573;28;20210;-83
2022/01/26 09:08:10;;;;;;;31.97;19.60;;;;;;;;;;5062219;28;20205;-85
2022/01/26 09:10:39;;;;;;;36.90;19.57;;;;;;;;;;5058709;28;20229;-83
2022/01/26 09:13:07;;;;;;;35.40;20.37;;;;;;;;;;5057965;28;20224;-86
2022/01/26 09:15:36;;;;;;;31.77;18.50;;;;;;;;;;5058228;28;20212;-82
2022/01/26 09:18:08;;;;;;;31.60;18.93;;;;;;;;;;5057593;28;20261;-84
2022/01/26 09:20:37;;;;;;;33.17;19.00;;;;;;;;;;5052347;28;20224;-85
2022/01/26 09:23:06;;;;;;;36.83;19.83;;;;;;;;;;5051436;28;20219;-85
2022/01/26 09:25:34;;;;;;;39.27;20.80;;;;;;;;;;5055584;28;20224;-86
2022/01/26 09:28:01;;;;;;;39.30;20.67;;;;;;;;;;5058165;28;20198;-84
2022/01/26 09:30:28;;;;;;;35.20;20.27;;;;;;;;;;5058416;28;20229;-85
2022/01/26 09:32:56;;;;;;;37.33;21.07;;;;;;;;;;5058958;28;20236;-85
2022/01/26 09:35:23;;;;;;;40.60;21.27;;;;;;;;;;5049493;28;20296;-83
2022/01/26 09:44:02;;;;;;;40.37;21.43;;;;;;;;;;5041942;28;20196;-81
2022/01/26 09:46:53;;;;;;;;;;;;;;;;;;;;;
2022/01/26 09:49:34;;;;;;;37.13;20.03;;;;;;;;;;5051382;28;20273;-82
2022/01/26 09:52:14;;;;;;;36.90;20.30;;;;;;;;;;5059703;28;20293;-83
2022/01/26 09:55:09;;;;;;;34.83;19.90;;;;;;;;;;5061309;28;20205;-81
2022/01/26 09:57:57;;;;;;;40.63;21.67;;;;;;;;;;5063923;28;20220;-83
2022/01/26 10:00:59;;;;;;;37.33;19.37;;;;;;;;;;5060823;28;20225;-82
2022/01/26 10:03:55;;;;;;;;;;;;;;;;;;;;;
2022/01/26 10:09:59;;;;;;;38.67;19.57;;;;;;;;;;5033084;28;20226;-83
2022/01/26 10:15:33;;;;;;;39.30;19.60;;;;;;;;;;5052248;28;20666;-84
2022/01/26 10:18:09;;;;;;;35.03;19.47;;;;;;;;;;5059850;28;20297;-86
2022/01/26 10:20:54;;;;;;;37.90;19.40;;;;;;;;;;5061017;28;20311;-84
2022/01/26 10:23:47;;;;;;;37.53;20.80;;;;;;;;;;5061283;28;20201;-84
2022/01/26 10:26:20;;;;;;;36.20;19.83;;;;;;;;;;5059398;28;20213;-85
2022/01/26 10:28:49;;;;;;;33.43;18.77;;;;;;;;;;5061187;28;20209;-83
2022/01/26 10:31:31;;;;;;;33.90;19.07;;;;;;;;;;5062665;28;20233;-85
2022/01/26 10:33:59;;;;;;;36.87;20.20;;;;;;;;;;5052512;28;20212;-82
2022/01/26 10:36:35;;;;;;;39.10;20.07;;;;;;;;;;5059898;28;20201;-84
2022/01/26 10:39:04;;;;;;;33.67;18.80;;;;;;;;;;5057451;28;20231;-84
2022/01/26 10:41:43;;;;;;;37.00;19.57;;;;;;;;;;5057993;28;20197;-83
2022/01/26 10:47:03;;;;;;;34.50;19.60;;;;;;;;;;5060189;28;20213;-84
2022/01/26 10:50:09;;;;;;;35.57;20.40;;;;;;;;;;5060993;28;20217;-80
2022/01/26 10:52:55;;;;;;;35.90;20.40;;;;;;;;;;5058435;28;20207;-83
2022/01/26 10:55:23;;;;;;;38.70;20.70;;;;;;;;;;5051936;28;20225;-83
2022/01/26 11:00:39;;;;;;;34.60;19.53;;;;;;;;;;5032008;28;20256;-85
2022/01/26 11:03:07;;;;;;;37.57;20.40;;;;;;;;;;5055792;28;20216;-82
2022/01/26 11:05:35;;;;;;;40.20;21.87;;;;;;;;;;5056356;28;20216;-84
2022/01/26 11:08:05;;;;;;;37.80;20.53;;;;;;;;;;5054760;28;20213;-81
2022/01/26 11:10:33;;;;;;;39.53;20.20;;;;;;;;;;5059135;28;20267;-83
2022/01/26 11:13:00;;;;;;;37.80;20.37;;;;;;;;;;5057838;28;20239;-86
2022/01/26 11:15:28;;;;;;;36.13;19.60;;;;;;;;;;5060882;28;20201;-82
2022/01/26 11:18:07;;;;;;;35.83;18.60;;;;;;;;;;5061839;28;20210;-84
2022/01/26 11:20:45;;;;;;;36.30;20.03;;;;;;;;;;5055708;28;20220;-80
2022/01/26 11:23:14;;;;;;;36.97;19.40;;;;;;;;;;5060201;28;20220;-82
2022/01/26 11:25:43;;;;;;;36.17;18.87;;;;;;;;;;5057953;28;20376;-84
2022/01/26 11:28:18;;;;;;;35.37;17.97;;;;;;;;;;5060239;28;20248;-83
2022/01/26 11:30:46;;;;;;;36.93;17.67;;;;;;;;;;5057532;28;20217;-87
2022/01/26 11:33:29;;;;;;;34.77;18.40;;;;;;;;;;5058119;28;20198;-86
2022/01/26 11:42:13;;;;;;;34.43;17.63;;;;;;;;;;5059286;28;20231;-86
2022/01/26 11:45:07;;;;;;;35.97;18.53;;;;;;;;;;5001605;28;20207;-87
2022/01/26 11:47:38;;;;;;;35.30;17.30;;;;;;;;;;5060637;28;20216;-85
2022/01/26 11:50:08;;;;;;;31.80;17.17;;;;;;;;;;5056230;28;20212;-84
2022/01/26 11:52:39;;;;;;;33.10;16.93;;;;;;;;;;5057142;28;20205;-84
2022/01/26 11:55:20;;;;;;;31.53;17.40;;;;;;;;;;5056624;28;20213;-85
2022/01/26 11:57:52;;;;;;;31.07;17.03;;;;;;;;;;5058182;28;20269;-86
2022/01/26 12:05:37;;;;;;;33.10;17.53;;;;;;;;;;5005807;28;20243;-84
2022/01/26 12:08:20;;;;;;;27.33;17.07;;;;;;;;;;5008342;28;20233;-84
2022/01/26 12:11:05;;;;;;;30.63;16.80;;;;;;;;;;5009309;28;20250;-84
2022/01/26 12:13:36;;;;;;;27.73;16.00;;;;;;;;;;5006928;28;20207;-85
2022/01/26 12:16:14;;;;;;;28.07;15.50;;;;;;;;;;4996776;28;20207;-84
2022/01/26 12:18:57;;;;;;;31.10;16.40;;;;;;;;;;4995708;28;20199;-85
2022/01/26 13:07:30;;;;;;;;;;;;;;;;;;;;;
2022/01/26 13:10:02;;;;;;;32.70;16.60;;;;;;;;;;5018205;28;20222;-88
2022/01/26 13:12:42;;;;;;;34.10;17.13;;;;;;;;;;5013742;28;20229;-87
2022/01/26 13:15:22;;;;;;;34.00;17.27;;;;;;;;;;5014481;28;20297;-88
2022/01/26 13:18:05;;;;;;;34.50;17.57;;;;;;;;;;5011706;28;20206;-88
2022/01/26 13:20:53;;;;;;;34.80;16.77;;;;;;;;;;5014793;28;20246;-87
2022/01/26 13:26:23;;;;;;;30.07;15.83;;;;;;;;;;5009400;28;20207;-88
2022/01/26 13:59:43;;;;;;;27.77;13.83;;;;;;;;;;4993192;28;20215;-87
2022/01/26 14:02:30;;;;;;;;;;;;;;;;;;;;;
2022/01/26 15:00:05;;;;;;;30.23;15.07;;;;;;;;;;5035880;28;20332;-85
2022/01/26 15:48:41;;;;;;;26.40;13.90;;;;;;;;;;5033913;28;20210;-86
2022/01/26 15:50:49;;;;;;;26.87;13.87;;;;;;;;;;5032027;28;20248;-85
2022/01/26 18:50:44;;;;;;;30.13;16.20;;;;;;;;;;5010041;28;20268;-87
2022/01/26 18:53:14;;;;;;;30.83;15.87;;;;;;;;;;5014342;28;20217;-87
2022/01/26 18:55:51;;;;;;;34.77;17.47;;;;;;;;;;5015591;28;20199;-86
2022/01/26 18:58:30;;;;;;;32.10;17.93;;;;;;;;;;5017750;28;20205;-87
2022/01/26 19:10:33;;;;;;;33.27;16.73;;;;;;;;;;4928412;29;20233;-84
2022/01/26 19:13:00;;;;;;;31.67;16.27;;;;;;;;;;4916196;29;20790;-85
2022/01/26 19:15:32;;;;;;;31.13;15.73;;;;;;;;;;4932308;29;20275;-85
2022/01/26 19:18:11;;;;;;;34.87;18.50;;;;;;;;;;4936771;29;20205;-88
2022/01/26 19:21:03;;;;;;;29.47;16.00;;;;;;;;;;4935463;29;20221;-90
2022/01/26 19:24:08;;;;;;;32.10;16.50;;;;;;;;;;4940960;29;20249;-90
2022/01/26 19:26:43;;;;;;;35.83;16.73;;;;;;;;;;4932952;29;20245;-85
2022/01/26 19:29:23;;;;;;;30.67;15.80;;;;;;;;;;4935113;29;20304;-89
2022/01/26 19:32:30;;;;;;;33.77;16.20;;;;;;;;;;4931144;29;20244;-85
2022/01/26 19:41:54;;;;;;;33.17;16.50;;;;;;;;;;4965113;28;20314;-87
2022/01/26 20:13:43;;;;;;;33.27;16.67;;;;;;;;;;5010631;28;20258;-85
2022/01/26 20:16:19;;;;;;;33.33;18.23;;;;;;;;;;5008215;28;20221;-87
2022/01/26 20:19:05;;;;;;;30.40;16.27;;;;;;;;;;5000808;28;20198;-85
2022/01/26 20:24:15;;;;;;;29.93;16.10;;;;;;;;;;5040605;23;20785;-86
2022/01/26 20:30:01;;;;;;;31.47;16.03;;;;;;;;;;5032231;28;20202;-87
2022/01/26 21:40:28;;;;;;;26.47;14.50;;;;;;;;;;5033658;28;20233;-87
2022/01/26 21:42:55;;;;;;;28.27;14.03;;;;;;;;;;5020998;28;20269;-84
2022/01/26 21:45:23;;;;;;;27.43;15.10;;;;;;;;;;5021000;28;20270;-87
2022/01/26 21:47:50;;;;;;;25.90;14.20;;;;;;;;;;5016318;28;20206;-87
2022/01/26 21:50:18;;;;;;;27.07;15.40;;;;;;;;;;5016195;28;20234;-87
2022/01/26 21:52:45;;;;;;;26.03;13.50;;;;;;;;;;5018855;28;20191;-88
2022/01/26 21:55:12;;;;;;;27.17;14.37;;;;;;;;;;5015654;28;20204;-86
2022/01/26 21:57:46;;;;;;;26.03;14.80;;;;;;;;;;5012979;28;20226;-87
2022/01/26 22:00:15;;;;;;;26.60;14.90;;;;;;;;;;5024327;28;20222;-87
2022/01/26 22:02:43;;;;;;;27.57;14.97;;;;;;;;;;5015536;28;20218;-86
2022/01/26 22:05:10;;;;;;;27.33;14.30;;;;;;;;;;5013301;28;20222;-86
2022/01/26 22:07:38;;;;;;;29.60;14.23;;;;;;;;;;5013516;28;20210;-87
2022/01/26 22:10:06;;;;;;;23.00;13.23;;;;;;;;;;5016184;28;20244;-86
2022/01/26 22:12:33;;;;;;;25.17;13.63;;;;;;;;;;5019169;28;20237;-86
2022/01/26 22:15:02;;;;;;;26.87;14.73;;;;;;;;;;5021314;28;20215;-86
2022/01/26 22:17:29;;;;;;;23.87;13.43;;;;;;;;;;5021608;28;20207;-84
2022/01/26 22:19:56;;;;;;;27.63;15.60;;;;;;;;;;5018607;28;20210;-85
2022/01/26 22:22:24;;;;;;;25.40;14.00;;;;;;;;;;5022633;28;20249;-86
2022/01/26 22:24:51;;;;;;;28.77;15.00;;;;;;;;;;5022394;28;20199;-87
2022/01/26 22:27:24;;;;;;;30.83;14.23;;;;;;;;;;5016498;28;20277;-85
2022/01/26 22:29:51;;;;;;;31.30;14.37;;;;;;;;;;5013893;28;20214;-86
2022/01/26 22:32:20;;;;;;;27.13;14.90;;;;;;;;;;5024042;28;20195;-87
2022/01/26 22:34:47;;;;;;;28.57;15.53;;;;;;;;;;5023762;28;20210;-84
2022/01/26 22:37:23;;;;;;;26.80;14.43;;;;;;;;;;5018377;28;20264;-86
2022/01/26 22:39:51;;;;;;;30.27;15.63;;;;;;;;;;5017707;28;20222;-86
2022/01/26 22:42:18;;;;;;;28.10;14.63;;;;;;;;;;5022247;28;20310;-86
2022/01/26 22:44:45;;;;;;;30.20;15.17;;;;;;;;;;5021765;28;20210;-86
2022/01/26 22:47:12;;;;;;;27.07;14.67;;;;;;;;;;5021797;28;20206;-86
2022/01/26 22:49:41;;;;;;;28.90;15.33;;;;;;;;;;5022578;28;20237;-86
2022/01/26 22:52:09;;;;;;;34.20;16.13;;;;;;;;;;5022057;28;20194;-85
2022/01/26 22:54:36;;;;;;;31.90;15.97;;;;;;;;;;5021009;28;20210;-87
2022/01/26 22:57:04;;;;;;;29.17;14.97;;;;;;;;;;5020296;28;20221;-86
2022/01/26 22:59:31;;;;;;;35.80;15.53;;;;;;;;;;5021994;28;20207;-86
2022/01/26 23:05:04;;;;;;;29.03;16.37;;;;;;;;;;5021793;28;20203;-86
2022/01/26 23:07:31;;;;;;;31.47;15.67;;;;;;;;;;5020587;28;20210;-86
2022/01/26 23:09:58;;;;;;;27.20;14.87;;;;;;;;;;5020324;28;20230;-87
2022/01/26 23:12:26;;;;;;;30.93;15.50;;;;;;;;;;5020462;28;20274;-85
2022/01/26 23:14:53;;;;;;;31.07;15.00;;;;;;;;;;5019651;28;20266;-86
2022/01/26 23:17:20;;;;;;;31.17;15.83;;;;;;;;;;5018882;28;20202;-86
2022/01/26 23:19:47;;;;;;;31.73;15.63;;;;;;;;;;5020627;28;20210;-85
2022/01/26 23:22:17;;;;;;;30.60;15.20;;;;;;;;;;5019896;28;20229;-86
2022/01/26 23:24:48;;;;;;;29.17;15.40;;;;;;;;;;5018840;28;20260;-86
2022/01/26 23:27:22;;;;;;;30.07;14.87;;;;;;;;;;5020033;28;20206;-86
2022/01/26 23:30:02;;;;;;;33.67;16.13;;;;;;;;;;5020145;28;20234;-86
2022/01/26 23:33:00;;;;;;;30.10;16.17;;;;;;;;;;5014597;28;20289;-87
2022/01/26 23:35:48;;;;;;;29.73;14.60;;;;;;;;;;5025590;28;20221;-88
2022/01/26 23:38:24;;;;;;;31.43;15.70;;;;;;;;;;5030420;28;20221;-87
2022/01/26 23:57:25;;;;;;;29.97;15.87;;;;;;;;;;5017603;28;20260;-86
